sensor_id;sensor_type;location;lat;lon;timestamp;pressure;altitude;pressure_sealevel;temperature;humidity
77079;BME280;66004;55.096;38.760;2023-05-10T00:01:52;101167.44;;;3.95;61.39
77079;BME280;66004;55.096;38.760;2023-05-10T00:04:17;101174.09;;;3.94;61.59
77079;BME280;66004;55.096;38.760;2023-05-10T00:06:43;101166.56;;;3.89;61.37
77079;BME280;66004;55.096;38.760;2023-05-10T00:09:08;101170.16;;;3.89;61.55
77079;BME280;66004;55.096;38.760;2023-05-10T00:11:34;101172.44;;;3.93;61.45
77079;BME280;66004;55.096;38.760;2023-05-10T00:14:00;101179.13;;;3.97;61.07
77079;BME280;66004;55.096;38.760;2023-05-10T00:16:25;101178.34;;;4.01;61.34
77079;BME280;66004;55.096;38.760;2023-05-10T00:18:50;101184.47;;;4.03;61.45
77079;BME280;66004;55.096;38.760;2023-05-10T00:21:16;101186.97;;;4.05;61.25
77079;BME280;66004;55.096;38.760;2023-05-10T00:23:41;101183.09;;;4.06;61.17
77079;BME280;66004;55.096;38.760;2023-05-10T00:26:07;101182.25;;;4.05;61.14
77079;BME280;66004;55.096;38.760;2023-05-10T00:28:32;101156.84;;;3.97;60.91
77079;BME280;66004;55.096;38.760;2023-05-10T00:30:58;101179.22;;;4.07;61.07
77079;BME280;66004;55.096;38.760;2023-05-10T00:33:23;101183.09;;;4.06;60.87
77079;BME280;66004;55.096;38.760;2023-05-10T00:35:49;101172.47;;;4.03;60.81
77079;BME280;66004;55.096;38.760;2023-05-10T00:38:14;101179.75;;;4.04;60.89
77079;BME280;66004;55.096;38.760;2023-05-10T00:40:40;101171.66;;;4.02;60.91
77079;BME280;66004;55.096;38.760;2023-05-10T00:43:06;101174.69;;;3.96;60.79
77079;BME280;66004;55.096;38.760;2023-05-10T00:45:32;101197.03;;;4.06;60.91
77079;BME280;66004;55.096;38.760;2023-05-10T00:48:00;101193.13;;;4.07;60.64
77079;BME280;66004;55.096;38.760;2023-05-10T00:50:26;101192.00;;;4.08;60.53
77079;BME280;66004;55.096;38.760;2023-05-10T00:52:51;101187.59;;;4.12;60.35
77079;BME280;66004;55.096;38.760;2023-05-10T00:55:18;101195.97;;;4.17;60.43
77079;BME280;66004;55.096;38.760;2023-05-10T00:57:43;101195.44;;;4.20;60.60
77079;BME280;66004;55.096;38.760;2023-05-10T01:00:09;101191.53;;;4.21;60.30
77079;BME280;66004;55.096;38.760;2023-05-10T01:02:36;101186.53;;;4.18;60.42
77079;BME280;66004;55.096;38.760;2023-05-10T01:05:02;101180.41;;;4.21;60.57
77079;BME280;66004;55.096;38.760;2023-05-10T01:07:31;101178.19;;;4.23;60.79
77079;BME280;66004;55.096;38.760;2023-05-10T01:09:56;101187.97;;;4.26;60.70
77079;BME280;66004;55.096;38.760;2023-05-10T01:12:22;101170.38;;;4.25;60.74
77079;BME280;66004;55.096;38.760;2023-05-10T01:14:48;101174.28;;;4.24;60.98
77079;BME280;66004;55.096;38.760;2023-05-10T01:17:14;101179.88;;;4.24;60.77
77079;BME280;66004;55.096;38.760;2023-05-10T01:19:41;101183.22;;;4.26;60.48
77079;BME280;66004;55.096;38.760;2023-05-10T01:24:49;101177.66;;;4.26;60.34
77079;BME280;66004;55.096;38.760;2023-05-10T01:33:17;101172.69;;;4.34;60.47
77079;BME280;66004;55.096;38.760;2023-05-10T01:36:05;101184.94;;;4.38;60.88
77079;BME280;66004;55.096;38.760;2023-05-10T01:38:49;101177.38;;;4.33;60.85
77079;BME280;66004;55.096;38.760;2023-05-10T01:46:35;101183.31;;;4.47;60.89
77079;BME280;66004;55.096;38.760;2023-05-10T01:49:05;101178.88;;;4.51;60.91
77079;BME280;66004;55.096;38.760;2023-05-10T01:51:44;101169.13;;;4.54;61.25
77079;BME280;66004;55.096;38.760;2023-05-10T01:54:12;101176.72;;;4.63;61.01
77079;BME280;66004;55.096;38.760;2023-05-10T01:56:39;101172.81;;;4.64;61.41
77079;BME280;66004;55.096;38.760;2023-05-10T01:59:11;101178.97;;;4.72;61.11
77079;BME280;66004;55.096;38.760;2023-05-10T02:01:38;101177.56;;;4.74;60.88
77079;BME280;66004;55.096;38.760;2023-05-10T02:04:07;101170.03;;;4.70;60.98
77079;BME280;66004;55.096;38.760;2023-05-10T02:06:34;101181.22;;;4.80;61.12
77079;BME280;66004;55.096;38.760;2023-05-10T02:09:01;101179.56;;;4.79;61.03
77079;BME280;66004;55.096;38.760;2023-05-10T02:11:29;101173.41;;;4.82;60.88
77079;BME280;66004;55.096;38.760;2023-05-10T02:13:56;101177.91;;;4.88;61.24
77079;BME280;66004;55.096;38.760;2023-05-10T02:16:25;101158.38;;;4.83;61.09
77079;BME280;66004;55.096;38.760;2023-05-10T02:18:52;101170.69;;;4.92;61.39
77079;BME280;66004;55.096;38.760;2023-05-10T02:21:19;101174.59;;;4.96;61.35
77079;BME280;66004;55.096;38.760;2023-05-10T02:23:46;101173.47;;;4.92;61.11
77079;BME280;66004;55.096;38.760;2023-05-10T02:26:14;101182.69;;;4.98;61.19
77079;BME280;66004;55.096;38.760;2023-05-10T02:28:42;101185.19;;;4.99;60.99
77079;BME280;66004;55.096;38.760;2023-05-10T02:31:09;101178.22;;;5.02;61.09
77079;BME280;66004;55.096;38.760;2023-05-10T02:33:38;101176.81;;;5.04;60.75
77079;BME280;66004;55.096;38.760;2023-05-10T02:36:06;101168.47;;;5.10;60.79
77079;BME280;66004;55.096;38.760;2023-05-10T02:38:33;101170.72;;;5.18;61.24
77079;BME280;66004;55.096;38.760;2023-05-10T02:40:59;101154.53;;;5.25;60.97
77079;BME280;66004;55.096;38.760;2023-05-10T02:43:28;101162.94;;;5.35;61.12
77079;BME280;66004;55.096;38.760;2023-05-10T02:45:55;101169.66;;;5.44;60.86
77079;BME280;66004;55.096;38.760;2023-05-10T02:48:21;101151.78;;;5.51;60.46
77079;BME280;66004;55.096;38.760;2023-05-10T02:52:21;101160.16;;;5.66;60.09
77079;BME280;66004;55.096;38.760;2023-05-10T02:54:50;101157.34;;;5.71;60.03
77079;BME280;66004;55.096;38.760;2023-05-10T02:57:17;101150.66;;;5.72;60.59
77079;BME280;66004;55.096;38.760;2023-05-10T02:59:47;101160.69;;;5.83;60.28
77079;BME280;66004;55.096;38.760;2023-05-10T03:02:13;101157.88;;;5.89;60.46
77079;BME280;66004;55.096;38.760;2023-05-10T03:04:38;101159.59;;;6.00;60.03
77079;BME280;66004;55.096;38.760;2023-05-10T03:07:04;101159.59;;;6.05;60.23
77079;BME280;66004;55.096;38.760;2023-05-10T03:09:31;101163.47;;;6.09;59.83
77079;BME280;66004;55.096;38.760;2023-05-10T03:17:09;101153.91;;;6.31;59.02
77079;BME280;66004;55.096;38.760;2023-05-10T03:19:43;101155.53;;;6.42;58.35
77079;BME280;66004;55.096;38.760;2023-05-10T03:22:14;101148.50;;;6.55;57.83
77079;BME280;66004;55.096;38.760;2023-05-10T03:24:44;101154.91;;;6.66;57.62
77079;BME280;66004;55.096;38.760;2023-05-10T03:27:11;101149.78;;;6.78;57.35
77079;BME280;66004;55.096;38.760;2023-05-10T03:29:38;101155.34;;;6.88;57.10
77079;BME280;66004;55.096;38.760;2023-05-10T03:32:04;101158.69;;;6.95;56.93
77079;BME280;66004;55.096;38.760;2023-05-10T03:34:30;101145.75;;;7.05;56.70
77079;BME280;66004;55.096;38.760;2023-05-10T03:36:59;101140.63;;;7.12;56.36
77079;BME280;66004;55.096;38.760;2023-05-10T03:39:25;101140.34;;;7.18;56.31
77079;BME280;66004;55.096;38.760;2023-05-10T03:41:50;101136.09;;;7.21;56.08
77079;BME280;66004;55.096;38.760;2023-05-10T03:44:16;101142.22;;;7.28;56.18
77079;BME280;66004;55.096;38.760;2023-05-10T03:46:41;101146.34;;;7.36;55.93
77079;BME280;66004;55.096;38.760;2023-05-10T03:49:07;101142.69;;;7.40;55.82
77079;BME280;66004;55.096;38.760;2023-05-10T03:51:32;101133.66;;;7.49;55.61
77079;BME280;66004;55.096;38.760;2023-05-10T03:53:58;101151.22;;;7.59;55.33
77079;BME280;66004;55.096;38.760;2023-05-10T03:56:23;101141.00;;;7.74;55.25
77079;BME280;66004;55.096;38.760;2023-05-10T03:58:49;101129.47;;;7.80;54.75
77079;BME280;66004;55.096;38.760;2023-05-10T04:01:14;101132.00;;;8.06;53.98
77079;BME280;66004;55.096;38.760;2023-05-10T04:03:39;101145.00;;;8.21;53.70
77079;BME280;66004;55.096;38.760;2023-05-10T04:06:05;101151.94;;;8.29;52.87
77079;BME280;66004;55.096;38.760;2023-05-10T04:08:32;101143.09;;;8.41;51.63
77079;BME280;66004;55.096;38.760;2023-05-10T04:11:10;101143.28;;;8.49;50.71
77079;BME280;66004;55.096;38.760;2023-05-10T04:13:35;101155.28;;;8.55;49.58
77079;BME280;66004;55.096;38.760;2023-05-10T04:16:01;101138.69;;;8.58;48.84
77079;BME280;66004;55.096;38.760;2023-05-10T04:18:27;101140.63;;;8.63;48.55
77079;BME280;66004;55.096;38.760;2023-05-10T04:20:52;101140.69;;;8.77;48.11
77079;BME280;66004;55.096;38.760;2023-05-10T04:23:18;101135.41;;;8.94;48.10
77079;BME280;66004;55.096;38.760;2023-05-10T04:25:43;101141.94;;;9.09;47.81
77079;BME280;66004;55.096;38.760;2023-05-10T04:28:08;101133.69;;;9.18;47.75
77079;BME280;66004;55.096;38.760;2023-05-10T04:30:34;101133.75;;;9.31;47.90
77079;BME280;66004;55.096;38.760;2023-05-10T04:33:00;101129.56;;;9.48;47.89
77079;BME280;66004;55.096;38.760;2023-05-10T04:35:27;101122.44;;;9.69;47.63
77079;BME280;66004;55.096;38.760;2023-05-10T04:37:53;101129.97;;;9.88;47.73
77079;BME280;66004;55.096;38.760;2023-05-10T04:40:19;101131.38;;;10.04;47.73
77079;BME280;66004;55.096;38.760;2023-05-10T04:42:45;101118.34;;;10.08;47.34
77079;BME280;66004;55.096;38.760;2023-05-10T04:45:10;101137.13;;;10.27;47.15
77079;BME280;66004;55.096;38.760;2023-05-10T04:47:36;101133.94;;;10.47;47.06
77079;BME280;66004;55.096;38.760;2023-05-10T04:50:03;101132.97;;;10.66;46.76
77079;BME280;66004;55.096;38.760;2023-05-10T04:52:28;101129.84;;;10.81;46.29
77079;BME280;66004;55.096;38.760;2023-05-10T04:54:54;101132.31;;;10.97;45.99
77079;BME280;66004;55.096;38.760;2023-05-10T04:57:19;101142.53;;;10.93;45.86
77079;BME280;66004;55.096;38.760;2023-05-10T04:59:45;101133.53;;;10.90;46.22
77079;BME280;66004;55.096;38.760;2023-05-10T05:02:10;101130.00;;;10.99;46.39
77079;BME280;66004;55.096;38.760;2023-05-10T05:04:36;101130.34;;;11.20;46.23
77079;BME280;66004;55.096;38.760;2023-05-10T05:07:02;101123.75;;;11.47;45.69
77079;BME280;66004;55.096;38.760;2023-05-10T05:09:27;101115.16;;;11.66;45.68
77079;BME280;66004;55.096;38.760;2023-05-10T05:11:53;101121.06;;;11.87;45.43
77079;BME280;66004;55.096;38.760;2023-05-10T05:14:18;101120.41;;;12.13;45.21
77079;BME280;66004;55.096;38.760;2023-05-10T05:16:46;101120.31;;;12.35;44.48
77079;BME280;66004;55.096;38.760;2023-05-10T05:19:11;101121.91;;;12.59;44.19
77079;BME280;66004;55.096;38.760;2023-05-10T05:21:37;101113.47;;;12.76;43.24
77079;BME280;66004;55.096;38.760;2023-05-10T05:24:03;101094.56;;;12.85;42.85
77079;BME280;66004;55.096;38.760;2023-05-10T05:26:28;101099.22;;;12.99;42.30
77079;BME280;66004;55.096;38.760;2023-05-10T05:28:54;101119.19;;;13.29;41.60
77079;BME280;66004;55.096;38.760;2023-05-10T05:31:20;101112.91;;;13.32;40.75
77079;BME280;66004;55.096;38.760;2023-05-10T05:33:46;101118.22;;;13.42;40.27
77079;BME280;66004;55.096;38.760;2023-05-10T05:36:11;101109.22;;;13.57;40.67
77079;BME280;66004;55.096;38.760;2023-05-10T05:38:37;101101.22;;;13.77;39.65
77079;BME280;66004;55.096;38.760;2023-05-10T05:41:02;101107.00;;;13.98;39.84
77079;BME280;66004;55.096;38.760;2023-05-10T05:43:28;101103.94;;;14.12;39.44
77079;BME280;66004;55.096;38.760;2023-05-10T05:45:53;101105.88;;;14.29;39.15
77079;BME280;66004;55.096;38.760;2023-05-10T05:48:19;101096.81;;;14.44;38.93
77079;BME280;66004;55.096;38.760;2023-05-10T05:50:45;101112.53;;;14.71;38.14
77079;BME280;66004;55.096;38.760;2023-05-10T05:53:11;101094.34;;;14.93;37.58
77079;BME280;66004;55.096;38.760;2023-05-10T05:55:36;101095.41;;;15.10;35.69
77079;BME280;66004;55.096;38.760;2023-05-10T05:58:02;101096.13;;;15.28;35.29
77079;BME280;66004;55.096;38.760;2023-05-10T06:00:28;101093.28;;;15.28;33.47
77079;BME280;66004;55.096;38.760;2023-05-10T06:02:54;101109.25;;;15.11;33.21
77079;BME280;66004;55.096;38.760;2023-05-10T06:05:19;101098.38;;;15.13;33.31
77079;BME280;66004;55.096;38.760;2023-05-10T06:07:46;101102.47;;;15.25;33.28
77079;BME280;66004;55.096;38.760;2023-05-10T06:10:11;101086.69;;;15.36;32.71
77079;BME280;66004;55.096;38.760;2023-05-10T06:12:37;101099.41;;;15.51;32.55
77079;BME280;66004;55.096;38.760;2023-05-10T06:15:03;101093.59;;;15.47;32.59
77079;BME280;66004;55.096;38.760;2023-05-10T06:17:29;101089.88;;;15.34;32.18
77079;BME280;66004;55.096;38.760;2023-05-10T06:19:55;101086.84;;;15.18;32.11
77079;BME280;66004;55.096;38.760;2023-05-10T06:22:21;101093.47;;;15.23;32.33
77079;BME280;66004;55.096;38.760;2023-05-10T06:24:48;101092.81;;;15.26;32.28
77079;BME280;66004;55.096;38.760;2023-05-10T06:27:14;101092.66;;;15.22;31.23
77079;BME280;66004;55.096;38.760;2023-05-10T06:29:43;101078.81;;;15.21;31.23
77079;BME280;66004;55.096;38.760;2023-05-10T06:32:09;101083.78;;;15.24;31.04
77079;BME280;66004;55.096;38.760;2023-05-10T06:34:34;101076.03;;;15.33;30.57
77079;BME280;66004;55.096;38.760;2023-05-10T06:37:00;101089.31;;;15.41;30.26
77079;BME280;66004;55.096;38.760;2023-05-10T06:39:25;101081.69;;;15.33;29.73
77079;BME280;66004;55.096;38.760;2023-05-10T06:41:51;101083.78;;;15.24;29.45
77079;BME280;66004;55.096;38.760;2023-05-10T06:44:16;101069.13;;;15.22;29.03
77079;BME280;66004;55.096;38.760;2023-05-10T06:46:42;101070.25;;;15.63;28.21
77079;BME280;66004;55.096;38.760;2023-05-10T06:49:07;101059.16;;;16.15;28.50
77079;BME280;66004;55.096;38.760;2023-05-10T06:51:33;101069.34;;;16.17;26.63
77079;BME280;66004;55.096;38.760;2023-05-10T06:53:59;101066.25;;;16.09;26.72
77079;BME280;66004;55.096;38.760;2023-05-10T06:56:24;101066.63;;;16.32;26.08
77079;BME280;66004;55.096;38.760;2023-05-10T06:58:50;101068.28;;;16.33;25.17
77079;BME280;66004;55.096;38.760;2023-05-10T07:01:15;101066.63;;;16.32;24.98
77079;BME280;66004;55.096;38.760;2023-05-10T07:03:41;101060.72;;;16.38;25.27
77079;BME280;66004;55.096;38.760;2023-05-10T07:06:06;101058.69;;;16.38;24.34
77079;BME280;66004;55.096;38.760;2023-05-10T07:08:35;101058.31;;;16.27;23.26
77079;BME280;66004;55.096;38.760;2023-05-10T07:11:05;101048.59;;;15.91;23.47
77079;BME280;66004;55.096;38.760;2023-05-10T07:13:33;101046.91;;;15.78;23.37
77079;BME280;66004;55.096;38.760;2023-05-10T07:15:59;101047.63;;;15.87;23.56
77079;BME280;66004;55.096;38.760;2023-05-10T07:18:26;101047.47;;;15.71;21.82
77079;BME280;66004;55.096;38.760;2023-05-10T07:20:51;101046.38;;;15.64;21.90
77079;BME280;66004;55.096;38.760;2023-05-10T07:23:17;101035.03;;;15.64;22.13
77079;BME280;66004;55.096;38.760;2023-05-10T07:25:50;101049.13;;;15.72;21.64
77079;BME280;66004;55.096;38.760;2023-05-10T07:28:17;101043.59;;;15.76;21.85
77079;BME280;66004;55.096;38.760;2023-05-10T07:30:43;101051.69;;;15.99;22.01
77079;BME280;66004;55.096;38.760;2023-05-10T07:33:10;101050.03;;;16.10;21.97
77079;BME280;66004;55.096;38.760;2023-05-10T07:35:36;101041.91;;;16.21;22.51
77079;BME280;66004;55.096;38.760;2023-05-10T07:38:02;101042.13;;;16.40;22.70
77079;BME280;66004;55.096;38.760;2023-05-10T07:40:28;101034.19;;;16.58;22.75
77079;BME280;66004;55.096;38.760;2023-05-10T07:42:54;101044.47;;;16.75;22.54
77079;BME280;66004;55.096;38.760;2023-05-10T07:45:23;101031.06;;;16.76;22.28
77079;BME280;66004;55.096;38.760;2023-05-10T07:47:49;101034.41;;;16.65;22.21
77079;BME280;66004;55.096;38.760;2023-05-10T07:50:15;101043.84;;;16.82;22.19
77079;BME280;66004;55.096;38.760;2023-05-10T07:52:41;101025.16;;;16.81;21.59
77079;BME280;66004;55.096;38.760;2023-05-10T07:55:07;101031.06;;;16.76;21.33
77079;BME280;66004;55.096;38.760;2023-05-10T07:57:33;101036.78;;;16.63;21.24
77079;BME280;66004;55.096;38.760;2023-05-10T07:59:59;101025.44;;;16.51;21.57
77079;BME280;66004;55.096;38.760;2023-05-10T08:02:25;101013.84;;;16.56;21.82
77079;BME280;66004;55.096;38.760;2023-05-10T08:04:50;101018.78;;;16.71;21.48
77079;BME280;66004;55.096;38.760;2023-05-10T08:07:16;101020.19;;;16.90;21.37
77079;BME280;66004;55.096;38.760;2023-05-10T08:09:42;101026.25;;;17.17;21.82
77079;BME280;66004;55.096;38.760;2023-05-10T08:12:08;101026.47;;;17.24;21.40
77079;BME280;66004;55.096;38.760;2023-05-10T08:14:33;101019.09;;;17.23;21.40
77079;BME280;66004;55.096;38.760;2023-05-10T08:16:59;101006.38;;;17.04;21.24
77079;BME280;66004;55.096;38.760;2023-05-10T08:19:25;101014.38;;;16.86;21.60
77079;BME280;66004;55.096;38.760;2023-05-10T08:21:51;101013.75;;;16.93;22.01
77079;BME280;66004;55.096;38.760;2023-05-10T08:24:18;101011.19;;;16.76;21.48
77079;BME280;66004;55.096;38.760;2023-05-10T08:26:44;101006.38;;;16.51;21.84
77079;BME280;66004;55.096;38.760;2023-05-10T08:29:09;101012.06;;;16.27;22.13
77079;BME280;66004;55.096;38.760;2023-05-10T08:31:35;100992.31;;;16.06;23.03
77079;BME280;66004;55.096;38.760;2023-05-10T08:34:00;101007.22;;;16.03;23.23
77079;BME280;66004;55.096;38.760;2023-05-10T08:36:26;101002.38;;;15.91;23.30
77079;BME280;66004;55.096;38.760;2023-05-10T08:38:53;101004.38;;;15.90;23.74
77079;BME280;66004;55.096;38.760;2023-05-10T08:41:23;101006.16;;;15.95;23.84
77079;BME280;66004;55.096;38.760;2023-05-10T08:43:53;100998.81;;;15.82;23.12
77079;BME280;66004;55.096;38.760;2023-05-10T08:46:20;100996.56;;;15.75;23.20
77079;BME280;66004;55.096;38.760;2023-05-10T08:52:13;100985.81;;;15.93;23.03
77079;BME280;66004;55.096;38.760;2023-05-10T08:54:41;100974.56;;;16.21;23.00
77079;BME280;66004;55.096;38.760;2023-05-10T08:57:06;100978.81;;;16.52;23.11
77079;BME280;66004;55.096;38.760;2023-05-10T08:59:32;100964.34;;;16.57;23.12
77079;BME280;66004;55.096;38.760;2023-05-10T09:01:58;100981.13;;;16.74;22.24
77079;BME280;66004;55.096;38.760;2023-05-10T09:04:25;100975.22;;;16.67;22.55
77079;BME280;66004;55.096;38.760;2023-05-10T09:06:50;100975.94;;;16.64;22.58
77079;BME280;66004;55.096;38.760;2023-05-10T09:09:17;100962.19;;;16.66;22.56
77079;BME280;66004;55.096;38.760;2023-05-10T09:11:43;100955.56;;;16.62;22.11
77079;BME280;66004;55.096;38.760;2023-05-10T09:14:10;100961.47;;;16.69;22.57
77079;BME280;66004;55.096;38.760;2023-05-10T09:16:37;100950.56;;;16.84;22.96
77079;BME280;66004;55.096;38.760;2023-05-10T09:19:03;100943.44;;;16.90;22.84
77079;BME280;66004;55.096;38.760;2023-05-10T09:21:29;100932.06;;;16.90;22.93
77079;BME280;66004;55.096;38.760;2023-05-10T09:23:56;100933.22;;;17.01;22.35
77079;BME280;66004;55.096;38.760;2023-05-10T09:26:23;100935.28;;;16.88;22.20
77079;BME280;66004;55.096;38.760;2023-05-10T09:31:17;100932.31;;;16.85;22.27
77079;BME280;66004;55.096;38.760;2023-05-10T09:33:47;100936.84;;;16.86;21.65
77079;BME280;66004;55.096;38.760;2023-05-10T09:36:13;100918.50;;;16.71;21.40
77079;BME280;66004;55.096;38.760;2023-05-10T09:38:48;100933.28;;;16.77;22.12
77079;BME280;66004;55.096;38.760;2023-05-10T09:41:21;100924.91;;;16.55;21.73
77079;BME280;66004;55.096;38.760;2023-05-10T09:43:47;100917.47;;;16.63;21.92
77079;BME280;66004;55.096;38.760;2023-05-10T09:46:14;100924.66;;;16.73;22.31
77079;BME280;66004;55.096;38.760;2023-05-10T09:48:45;100924.28;;;16.74;22.35
77079;BME280;66004;55.096;38.760;2023-05-10T09:51:21;100924.47;;;16.82;21.62
77079;BME280;66004;55.096;38.760;2023-05-10T09:53:47;100924.28;;;16.74;21.46
77079;BME280;66004;55.096;38.760;2023-05-10T09:56:18;100912.16;;;16.62;21.63
77079;BME280;66004;55.096;38.760;2023-05-10T09:59:04;100919.00;;;16.61;21.78
77079;BME280;66004;55.096;38.760;2023-05-10T10:01:29;100908.25;;;16.54;22.08
77079;BME280;66004;55.096;38.760;2023-05-10T10:03:56;100907.56;;;16.45;21.99
77079;BME280;66004;55.096;38.760;2023-05-10T10:06:23;100915.59;;;16.55;22.04
77079;BME280;66004;55.096;38.760;2023-05-10T10:08:50;100898.03;;;16.65;21.86
77079;BME280;66004;55.096;38.760;2023-05-10T10:11:16;100907.06;;;16.96;21.60
77079;BME280;66004;55.096;38.760;2023-05-10T10:13:42;100901.41;;;17.11;21.84
77079;BME280;66004;55.096;38.760;2023-05-10T10:16:08;100899.59;;;17.35;22.17
77079;BME280;66004;55.096;38.760;2023-05-10T10:18:35;100900.44;;;17.67;22.21
77079;BME280;66004;55.096;38.760;2023-05-10T10:21:05;100900.41;;;17.83;22.04
77079;BME280;66004;55.096;38.760;2023-05-10T10:23:32;100882.44;;;17.79;21.88
77079;BME280;66004;55.096;38.760;2023-05-10T10:25:57;100897.41;;;17.92;21.69
77079;BME280;66004;55.096;38.760;2023-05-10T10:32:11;100881.69;;;17.82;21.79
77079;BME280;66004;55.096;38.760;2023-05-10T10:34:42;100885.53;;;17.74;21.68
77079;BME280;66004;55.096;38.760;2023-05-10T10:37:08;100887.75;;;17.65;21.78
77079;BME280;66004;55.096;38.760;2023-05-10T10:39:33;100889.22;;;17.59;22.31
77079;BME280;66004;55.096;38.760;2023-05-10T10:42:02;100883.81;;;17.38;21.79
77079;BME280;66004;55.096;38.760;2023-05-10T10:49:30;100873.25;;;17.38;22.61
77079;BME280;66004;55.096;38.760;2023-05-10T10:54:56;100873.72;;;17.56;23.09
77079;BME280;66004;55.096;38.760;2023-05-10T10:57:23;100855.53;;;17.61;23.41
77079;BME280;66004;55.096;38.760;2023-05-10T10:59:48;100870.25;;;17.47;22.91
77079;BME280;66004;55.096;38.760;2023-05-10T11:02:34;100869.59;;;17.22;22.31
77079;BME280;66004;55.096;38.760;2023-05-10T11:08:01;100861.72;;;17.31;22.50
77079;BME280;66004;55.096;38.760;2023-05-10T11:10:32;100858.97;;;17.50;22.71
77079;BME280;66004;55.096;38.760;2023-05-10T11:13:08;100854.53;;;17.69;22.19
77079;BME280;66004;55.096;38.760;2023-05-10T11:15:38;100853.44;;;17.89;21.83
77079;BME280;66004;55.096;38.760;2023-05-10T11:18:24;100851.34;;;18.06;21.79
77079;BME280;66004;55.096;38.760;2023-05-10T11:20:51;100848.06;;;18.04;21.86
77079;BME280;66004;55.096;38.760;2023-05-10T11:23:17;100842.19;;;17.97;21.95
77079;BME280;66004;55.096;38.760;2023-05-10T11:25:44;100839.72;;;17.79;21.87
77079;BME280;66004;55.096;38.760;2023-05-10T11:28:13;100844.06;;;17.73;21.80
77079;BME280;66004;55.096;38.760;2023-05-10T11:30:40;100820.00;;;17.86;21.83
77079;BME280;66004;55.096;38.760;2023-05-10T11:33:08;100834.03;;;17.79;21.76
77079;BME280;66004;55.096;38.760;2023-05-10T11:35:38;100832.84;;;17.80;21.83
77079;BME280;66004;55.096;38.760;2023-05-10T11:38:08;100825.88;;;17.94;22.13
77079;BME280;66004;55.096;38.760;2023-05-10T11:40:36;100822.88;;;18.06;21.96
77079;BME280;66004;55.096;38.760;2023-05-10T11:43:02;100822.88;;;18.06;22.47
77079;BME280;66004;55.096;38.760;2023-05-10T11:45:28;100811.03;;;17.84;22.35
77079;BME280;66004;55.096;38.760;2023-05-10T11:47:57;100814.13;;;17.79;22.30
77079;BME280;66004;55.096;38.760;2023-05-10T11:50:23;100806.78;;;17.78;22.38
77079;BME280;66004;55.096;38.760;2023-05-10T11:52:53;100820.72;;;17.83;22.15
77079;BME280;66004;55.096;38.760;2023-05-10T11:55:19;100815.16;;;17.71;22.83
77079;BME280;66004;55.096;38.760;2023-05-10T11:57:45;100818.09;;;17.59;22.43
77079;BME280;66004;55.096;38.760;2023-05-10T12:00:14;100817.47;;;17.49;22.80
77079;BME280;66004;55.096;38.760;2023-05-10T12:02:40;100807.00;;;17.54;23.05
77079;BME280;66004;55.096;38.760;2023-05-10T12:05:07;100807.00;;;17.54;22.89
77079;BME280;66004;55.096;38.760;2023-05-10T12:07:32;100813.63;;;17.58;22.88
77079;BME280;66004;55.096;38.760;2023-05-10T12:10:09;100814.91;;;17.44;22.55
77079;BME280;66004;55.096;38.760;2023-05-10T12:12:39;100810.69;;;17.38;23.11
77079;BME280;66004;55.096;38.760;2023-05-10T12:15:20;100808.97;;;17.34;22.73
77079;BME280;66004;55.096;38.760;2023-05-10T12:17:46;100808.69;;;17.23;22.66
77079;BME280;66004;55.096;38.760;2023-05-10T12:20:21;100807.50;;;17.24;22.88
77079;BME280;66004;55.096;38.760;2023-05-10T12:22:55;100789.22;;;17.25;23.17
77079;BME280;66004;55.096;38.760;2023-05-10T12:25:23;100803.38;;;17.37;22.65
77079;BME280;66004;55.096;38.760;2023-05-10T12:27:53;100804.44;;;17.48;22.90
77079;BME280;66004;55.096;38.760;2023-05-10T12:30:27;100796.19;;;17.43;23.03
77079;BME280;66004;55.096;38.760;2023-05-10T12:32:54;100790.56;;;17.63;23.18
77079;BME280;66004;55.096;38.760;2023-05-10T12:35:24;100784.31;;;17.57;22.77
77079;BME280;66004;55.096;38.760;2023-05-10T12:37:53;100794.56;;;17.78;22.66
77079;BME280;66004;55.096;38.760;2023-05-10T12:40:18;100788.19;;;18.00;22.84
77079;BME280;66004;55.096;38.760;2023-05-10T12:42:44;100779.44;;;18.09;22.60
77079;BME280;66004;55.096;38.760;2023-05-10T12:45:10;100784.97;;;18.21;22.49
77079;BME280;66004;55.096;38.760;2023-05-10T12:47:37;100773.56;;;18.21;22.36
77079;BME280;66004;55.096;38.760;2023-05-10T12:50:03;100774.19;;;18.11;21.98
77079;BME280;66004;55.096;38.760;2023-05-10T12:52:30;100783.03;;;18.06;22.33
77079;BME280;66004;55.096;38.760;2023-05-10T12:54:57;100786.19;;;18.01;22.17
77079;BME280;66004;55.096;38.760;2023-05-10T12:57:23;100763.09;;;17.86;22.50
77079;BME280;66004;55.096;38.760;2023-05-10T12:59:48;100784.28;;;17.89;22.52
77079;BME280;66004;55.096;38.760;2023-05-10T13:02:15;100780.16;;;17.86;22.07
77079;BME280;66004;55.096;38.760;2023-05-10T13:04:41;100776.50;;;17.70;21.97
77079;BME280;66004;55.096;38.760;2023-05-10T13:07:07;100776.19;;;17.56;22.53
77079;BME280;66004;55.096;38.760;2023-05-10T13:09:32;100777.09;;;17.60;22.20
77079;BME280;66004;55.096;38.760;2023-05-10T13:11:58;100763.75;;;17.64;22.17
77079;BME280;66004;55.096;38.760;2023-05-10T13:14:24;100761.44;;;17.69;22.25
77079;BME280;66004;55.096;38.760;2023-05-10T13:16:49;100760.50;;;17.81;22.22
77079;BME280;66004;55.096;38.760;2023-05-10T13:19:16;100766.75;;;17.87;22.61
77079;BME280;66004;55.096;38.760;2023-05-10T13:21:41;100757.28;;;17.83;22.50
77079;BME280;66004;55.096;38.760;2023-05-10T13:24:07;100763.16;;;17.74;22.44